aviador You're here:

KOQT Decoded Metar

OAK RIDGE in TN, USA
Report Time2018-07-16 08:17:00
UTC Time2018-07-16 08:28:14
Flight Rules ifr IFR
WindCalm
Visibility9999 m
Phenomena:N/A
Clouds:Broken 008 Hf
Ceiling800 ft
Temp24°C (ISA +11)
Dew Point24°C (100% RH)
QNH1017 hPa
Density Alt2,425 ft
Elevation909 ft
Report Wrong Elevation
Raw Report
KOQT 160817Z AUTO 00000KT 10SM BKN008 24/24 A3004=

Extra information for KOQT:More info

Metar Taf Metar & Taf Last 4 Metars F.Rules Stats Wind Profile Meteogram Temp Stats Airport Information Weather charts Add Link Nearby VenuesMetar ALERT Operation Metar Decoded Social comments

AIRNAV info for KOQT